Hinckley, Minnesota
Current Conditions -  °F | °C
As of 3:43 AM on Monday 20 Oct 2014 (Local Time) from K04W Reporting Station
Clear Clear  
Wind Chill: 42°   Ceiling: Unl
Heat Index: 45°   Visibility: 10mi
Dew Point: 41°   Wind: 5mph
Humidity: 87%   Direction: 270°W
Pressure: 29.88"   Gusts: NA
Location:  46.01°N, 92.94°W
Report Text: K04W 200843Z AUTO 27004KT 10SM CLR 07/05 A2988 RMK AO2
Loading
Personal Weather Stations






























Interactive Weather Map
Tropical Storm Tracking
New forecast layout! Learn more

10-Day Weather Forecast

Advertisements
Track Severe Weather on mobile